Clyde, Kansas
Current Conditions -  °F | °C
As of 1:55 AM on Saturday 25 Oct 2014 (Local Time) from KCNK Reporting Station
Clear Clear  
Wind Chill: 56°   Ceiling: Unl
Heat Index: 56°   Visibility: 10mi
Dew Point: 51°   Wind: 3mph
Humidity: 84%   Direction: 120°ESE
Pressure: 30.03"   Gusts: NA
Location:  39.59°N, 97.4°W
Report Text: KCNK 250655Z AUTO 12003KT 10SM CLR 13/11 A3003 RMK AO2 SLP159 T01330106
Loading
Personal Weather Stations






























Interactive Weather Map
Tropical Storm Tracking
New forecast layout! Learn more

10-Day Weather Forecast

Advertisements
Track Severe Weather on mobile